Time;durP1;ratioP1;P1;durP2;ratioP2;P2;SDS_P1;SDS_P2;PMS_P1;PMS_P2;Temp;Humidity;BMP_temperature;BMP_pressure;BME280_temperature;BME280_humidity;BME280_pressure;Samples;Min_cycle;Max_cycle;Signal;HPM_P1;HPM_P2
2023/03/14 00:00:37;;;;;;;2.65;0.90;;;16.20;67.10;;;;;;10453695;28;20067;-59
2023/03/14 00:05:37;;;;;;;1.90;1.08;;;16.20;67.70;;;;;;10452567;28;20104;-59
2023/03/14 00:10:38;;;;;;;2.58;0.90;;;16.20;67.00;;;;;;10452391;28;20514;-58
2023/03/14 00:15:39;;;;;;;3.35;1.55;;;16.20;67.00;;;;;;10453469;28;20021;-59
2023/03/14 00:20:39;;;;;;;2.15;0.77;;;16.10;66.90;;;;;;10451798;28;20507;-59
2023/03/14 00:25:40;;;;;;;1.63;0.80;;;16.10;66.90;;;;;;10453054;28;20104;-58
2023/03/14 00:30:41;;;;;;;1.75;0.90;;;16.10;66.90;;;;;;10451142;28;20104;-59
2023/03/14 00:35:41;;;;;;;3.63;1.02;;;16.10;66.90;;;;;;10451169;28;20120;-59
2023/03/14 00:40:42;;;;;;;3.40;1.17;;;16.10;66.90;;;;;;10451030;28;20100;-58
2023/03/14 00:45:43;;;;;;;1.65;0.93;;;16.10;66.90;;;;;;10449315;28;20655;-59
2023/03/14 00:50:44;;;;;;;2.50;1.15;;;16.10;66.80;;;;;;10449664;28;20033;-58
2023/03/14 00:55:45;;;;;;;2.63;1.10;;;16.10;66.80;;;;;;10450497;28;20416;-59
2023/03/14 01:00:46;;;;;;;2.80;0.82;;;16.10;66.80;;;;;;10445201;28;20040;-59
2023/03/14 01:05:47;;;;;;;2.20;0.90;;;16.10;66.70;;;;;;10450071;28;20029;-59
2023/03/14 01:10:48;;;;;;;3.17;0.90;;;16.10;66.70;;;;;;10449905;28;20059;-59
2023/03/14 01:15:48;;;;;;;2.92;0.80;;;16.00;67.30;;;;;;10449922;28;20062;-59
2023/03/14 01:20:49;;;;;;;2.58;0.82;;;16.00;66.60;;;;;;10450654;28;20072;-59
2023/03/14 01:25:49;;;;;;;1.85;0.95;;;16.00;66.60;;;;;;10449858;28;20147;-59
2023/03/14 01:30:50;;;;;;;2.20;0.80;;;16.10;66.70;;;;;;10449459;28;20023;-58
2023/03/14 01:35:51;;;;;;;2.72;0.80;;;16.00;66.70;;;;;;10432522;28;20028;-59
2023/03/14 01:40:52;;;;;;;2.85;1.10;;;16.00;66.70;;;;;;10450105;28;20112;-59
2023/03/14 01:46:04;;;;;;;2.20;0.95;;;16.00;66.70;;;;;;10443350;28;20541;-59
2023/03/14 01:51:12;;;;;;;3.78;1.52;;;16.00;66.70;;;;;;10449278;28;20031;-58
2023/03/14 01:56:16;;;;;;;1.08;0.55;;;16.00;66.70;;;;;;10448557;28;20025;-59
2023/03/14 02:01:21;;;;;;;2.67;1.02;;;16.00;66.60;;;;;;10431389;28;20365;-59
2023/03/14 02:06:29;;;;;;;1.17;0.60;;;16.00;66.70;;;;;;10447726;28;20114;-58
2023/03/14 02:11:30;;;;;;;1.42;0.60;;;15.90;66.60;;;;;;10447387;28;20468;-59
2023/03/14 02:16:31;;;;;;;1.60;0.70;;;16.00;66.70;;;;;;10447421;28;20445;-58
2023/03/14 02:22:17;;;;;;;1.17;0.60;;;15.90;66.70;;;;;;10430935;28;20025;-59
2023/03/14 02:27:20;;;;;;;3.53;1.67;;;15.90;66.70;;;;;;10397180;28;20098;-59
2023/03/14 02:32:23;;;;;;;2.20;0.80;;;15.90;66.70;;;;;;10446647;28;20055;-58
2023/03/14 02:37:34;;;;;;;2.30;1.13;;;15.90;66.70;;;;;;10446432;28;20373;-58
2023/03/14 02:42:35;;;;;;;1.50;0.88;;;15.90;66.80;;;;;;10438091;28;20024;-58
2023/03/14 02:47:42;;;;;;;2.15;0.90;;;15.90;66.70;;;;;;10422905;28;20112;-58
2023/03/14 02:52:43;;;;;;;0.80;0.50;;;15.90;66.80;;;;;;10446146;28;20056;-58
2023/03/14 02:57:44;;;;;;;2.95;0.80;;;15.90;66.80;;;;;;10446775;28;20625;-58
2023/03/14 03:02:45;;;;;;;1.42;0.70;;;15.90;66.80;;;;;;10454708;28;20519;-58
2023/03/14 03:07:45;;;;;;;2.25;0.88;;;15.90;66.80;;;;;;10444921;28;20511;-59
2023/03/14 03:12:46;;;;;;;3.60;0.98;;;15.80;66.70;;;;;;10446307;28;20116;-59
2023/03/14 03:17:47;;;;;;;2.70;1.55;;;15.80;66.70;;;;;;10446939;28;20094;-58
2023/03/14 03:22:49;;;;;;;2.15;0.90;;;15.90;66.80;;;;;;10445316;28;20029;-59
2023/03/14 03:27:50;;;;;;;2.58;0.68;;;15.80;66.70;;;;;;10446745;28;20044;-58
2023/03/14 03:32:50;;;;;;;2.25;1.00;;;15.80;66.70;;;;;;10445120;28;20071;-59
2023/03/14 03:37:51;;;;;;;1.85;0.75;;;15.80;66.60;;;;;;10446203;28;20656;-58
2023/03/14 03:42:52;;;;;;;3.85;1.02;;;15.80;66.60;;;;;;10435656;28;20041;-58
2023/03/14 03:47:52;;;;;;;3.35;0.90;;;15.80;66.60;;;;;;10444964;28;20135;-59
2023/03/14 03:52:53;;;;;;;2.95;1.02;;;15.80;66.70;;;;;;10446231;28;20048;-58
2023/03/14 03:57:54;;;;;;;2.53;1.10;;;15.80;66.60;;;;;;10444619;28;20536;-59
2023/03/14 04:02:54;;;;;;;2.17;0.60;;;15.80;66.60;;;;;;10428071;28;20019;-58
2023/03/14 04:07:55;;;;;;;1.92;0.73;;;15.80;66.60;;;;;;10446134;28;20134;-58
2023/03/14 04:12:56;;;;;;;2.75;0.80;;;15.80;66.60;;;;;;10444506;28;20401;-59
2023/03/14 04:17:58;;;;;;;2.05;0.85;;;15.80;66.60;;;;;;10442183;28;20036;-59
2023/03/14 04:22:59;;;;;;;1.08;0.77;;;15.70;66.50;;;;;;10429049;28;20464;-59
2023/03/14 04:27:59;;;;;;;1.67;0.63;;;15.80;66.60;;;;;;10453042;28;20056;-59
2023/03/14 04:33:00;;;;;;;2.58;0.95;;;15.70;66.60;;;;;;10435243;28;20106;-59
2023/03/14 04:38:01;;;;;;;1.70;0.93;;;15.70;66.60;;;;;;10451822;28;20043;-59
2023/03/14 04:43:02;;;;;;;1.73;0.70;;;15.80;66.60;;;;;;10451133;28;20024;-59
2023/03/14 04:48:02;;;;;;;1.52;0.70;;;15.70;66.50;;;;;;10451317;28;20170;-59
2023/03/14 04:53:03;;;;;;;0.77;0.40;;;15.80;66.60;;;;;;10434376;28;20029;-58
2023/03/14 04:58:04;;;;;;;0.85;0.45;;;15.70;66.50;;;;;;10450946;28;20037;-58
2023/03/14 05:03:05;;;;;;;1.08;0.63;;;15.80;66.50;;;;;;10444580;28;20494;-57
2023/03/14 05:08:06;;;;;;;1.45;0.50;;;15.80;66.60;;;;;;10425521;28;20088;-60
2023/03/14 05:13:06;;;;;;;1.00;0.57;;;15.80;66.40;;;;;;10440487;28;20021;-58
2023/03/14 05:18:08;;;;;;;1.58;0.80;;;15.80;66.30;;;;;;10449139;28;20512;-60
2023/03/14 05:23:09;;;;;;;1.80;0.80;;;15.80;66.30;;;;;;10449839;28;20032;-58
2023/03/14 05:28:10;;;;;;;1.67;0.60;;;15.80;66.30;;;;;;10451057;28;20029;-57
2023/03/14 05:33:11;;;;;;;1.95;0.77;;;15.80;66.40;;;;;;10449515;28;20539;-58
2023/03/14 05:38:11;;;;;;;1.48;0.50;;;15.80;66.40;;;;;;10448460;28;20103;-57
2023/03/14 05:43:13;;;;;;;1.13;0.55;;;15.70;66.50;;;;;;10450206;28;20053;-58
2023/03/14 05:48:13;;;;;;;7.22;1.17;;;15.80;66.60;;;;;;10447853;28;20032;-59
2023/03/14 05:53:14;;;;;;;4.25;0.90;;;15.80;67.00;;;;;;10449127;28;20643;-56
2023/03/14 05:58:15;;;;;;;7.65;0.93;;;16.00;67.00;;;;;;10431602;28;20082;-57
2023/03/14 06:03:15;;;;;;;4.35;0.98;;;16.00;67.00;;;;;;10464495;28;20075;-57
2023/03/14 06:08:16;;;;;;;3.92;1.10;;;16.10;67.50;;;;;;10446108;28;20073;-57
2023/03/14 06:13:17;;;;;;;7.00;1.10;;;16.20;67.70;;;;;;10445547;28;20029;-58
2023/03/14 06:18:18;;;;;;;5.85;1.35;;;16.10;67.90;;;;;;10439469;28;20029;-55
2023/03/14 06:23:18;;;;;;;6.47;1.27;;;16.10;68.10;;;;;;10447582;28;20031;-56
2023/03/14 06:28:19;;;;;;;9.73;1.70;;;16.10;67.90;;;;;;10447693;28;20096;-56
2023/03/14 06:33:20;;;;;;;19.10;2.28;;;16.10;67.80;;;;;;10446805;28;20039;-56
2023/03/14 06:38:20;;;;;;;16.85;2.13;;;16.10;67.70;;;;;;10447691;28;20102;-55
2023/03/14 06:43:21;;;;;;;12.77;2.15;;;16.00;67.90;;;;;;10445883;28;20044;-56
2023/03/14 06:48:22;;;;;;;16.23;2.35;;;16.10;68.20;;;;;;10444653;28;20097;-55
2023/03/14 06:53:22;;;;;;;18.42;2.60;;;16.00;68.20;;;;;;10424335;28;20393;-56
2023/03/14 06:58:23;;;;;;;13.30;1.90;;;16.00;68.30;;;;;;10445500;28;20036;-56
2023/03/14 07:03:24;;;;;;;5.53;1.10;;;16.00;68.20;;;;;;10446696;28;20489;-56
2023/03/14 07:08:25;;;;;;;7.43;2.13;;;15.90;68.10;;;;;;10443191;28;20049;-56
2023/03/14 07:13:25;;;;;;;7.15;1.67;;;15.90;68.10;;;;;;10426996;28;20789;-56
2023/03/14 07:18:26;;;;;;;3.75;1.05;;;15.80;68.00;;;;;;10443992;28;20167;-56
2023/03/14 07:23:27;;;;;;;7.90;1.80;;;15.80;68.00;;;;;;10441602;28;20108;-56
2023/03/14 07:28:27;;;;;;;4.25;1.52;;;15.70;68.30;;;;;;10459598;28;20064;-56
2023/03/14 07:33:28;;;;;;;6.80;2.03;;;15.70;68.20;;;;;;10443032;28;20613;-55
2023/03/14 07:38:29;;;;;;;4.93;1.17;;;15.70;68.10;;;;;;10442476;28;20146;-56
2023/03/14 07:43:30;;;;;;;6.47;1.77;;;15.70;68.20;;;;;;10434491;28;20023;-56
2023/03/14 07:48:30;;;;;;;2.70;0.90;;;15.70;68.00;;;;;;10432332;28;20108;-55
2023/03/14 07:53:31;;;;;;;5.53;1.50;;;15.70;68.20;;;;;;10443186;28;20029;-55
2023/03/14 07:58:32;;;;;;;7.63;2.28;;;15.70;68.40;;;;;;10448449;28;20111;-55
2023/03/14 08:03:33;;;;;;;5.93;2.13;;;15.80;68.80;;;;;;10453651;28;20079;-56
2023/03/14 08:08:34;;;;;;;5.72;1.85;;;15.80;68.30;;;;;;10452865;28;20116;-56
2023/03/14 08:13:36;;;;;;;7.30;1.50;;;15.80;68.20;;;;;;10425976;28;20068;-56
2023/03/14 08:18:37;;;;;;;7.93;2.65;;;15.80;67.80;;;;;;10450625;28;20099;-56
2023/03/14 08:23:38;;;;;;;4.68;1.00;;;15.90;67.60;;;;;;10441604;28;20100;-56
2023/03/14 08:28:38;;;;;;;7.20;1.10;;;15.90;67.60;;;;;;10444714;28;20036;-56
2023/03/14 08:33:39;;;;;;;6.05;1.23;;;15.90;67.50;;;;;;10445787;28;20391;-57
2023/03/14 08:38:42;;;;;;;2.50;0.85;;;15.80;67.50;;;;;;10439958;28;20033;-56
2023/03/14 08:43:42;;;;;;;3.75;1.40;;;15.80;67.50;;;;;;10426996;28;20049;-56
2023/03/14 08:48:43;;;;;;;6.82;1.17;;;15.80;68.20;;;;;;10448869;28;20108;-56
2023/03/14 08:53:44;;;;;;;2.88;0.80;;;15.80;68.20;;;;;;10470573;28;20432;-56
2023/03/14 08:58:44;;;;;;;3.13;1.30;;;15.80;67.40;;;;;;10454602;28;20499;-56
2023/03/14 09:03:46;;;;;;;2.25;0.47;;;15.80;67.40;;;;;;10476733;28;20092;-56
2023/03/14 09:08:47;;;;;;;2.38;0.80;;;15.70;67.30;;;;;;10441420;28;20041;-56
2023/03/14 09:13:48;;;;;;;2.33;0.65;;;15.70;67.20;;;;;;10415864;28;20049;-56
2023/03/14 09:18:50;;;;;;;2.75;1.30;;;15.70;67.20;;;;;;10461217;28;20044;-56
2023/03/14 09:23:50;;;;;;;3.28;0.80;;;15.80;67.40;;;;;;10468835;28;20018;-56
2023/03/14 09:28:51;;;;;;;2.92;1.00;;;15.80;67.30;;;;;;10461342;28;20403;-56
2023/03/14 09:33:52;;;;;;;1.80;0.75;;;15.70;67.30;;;;;;10465455;28;20021;-55
2023/03/14 09:38:53;;;;;;;3.50;0.90;;;15.70;67.20;;;;;;10458305;28;20083;-56
2023/03/14 09:44:10;;;;;;;1.48;0.47;;;15.80;67.40;;;;;;10458516;28;20035;-56
2023/03/14 09:49:28;;;;;;;2.92;1.08;;;15.80;67.20;;;;;;10418507;28;20019;-55
2023/03/14 09:54:53;;;;;;;1.42;0.50;;;15.80;67.30;;;;;;10453515;28;20040;-55
2023/03/14 10:00:13;;;;;;;3.58;0.75;;;15.70;67.20;;;;;;10485285;28;20040;-56
2023/03/14 10:05:18;;;;;;;;;;;15.70;67.30;;;;;;10434743;28;20027;-56
2023/03/14 10:10:24;;;;;;;2.60;0.60;;;15.70;67.20;;;;;;10439535;28;19924;-56
2023/03/14 10:15:34;;;;;;;3.28;0.85;;;15.70;67.10;;;;;;10456281;28;20029;-56
2023/03/14 10:20:45;;;;;;;1.25;0.50;;;15.70;67.00;;;;;;10460615;28;20094;-57
2023/03/14 10:26:00;;;;;;;1.42;0.60;;;15.70;67.00;;;;;;10455241;28;20049;-55
2023/03/14 10:31:01;;;;;;;1.83;0.70;;;15.80;67.10;;;;;;10435055;28;20021;-55
2023/03/14 10:36:26;;;;;;;2.75;0.80;;;15.70;67.10;;;;;;10426660;28;20444;-55
2023/03/14 10:41:31;;;;;;;2.90;1.45;;;15.70;67.10;;;;;;10421314;28;20464;-56
2023/03/14 10:46:33;;;;;;;3.15;0.95;;;15.70;67.00;;;;;;10450061;28;20681;-57
2023/03/14 10:51:34;;;;;;;1.83;0.88;;;15.80;67.00;;;;;;10433109;28;20104;-56
2023/03/14 10:56:37;;;;;;;2.42;0.93;;;15.70;66.90;;;;;;10451629;28;20029;-56
2023/03/14 11:02:03;;;;;;;2.33;0.63;;;15.70;67.00;;;;;;10439424;28;20029;-57
2023/03/14 11:07:44;;;;;;;3.80;1.25;;;15.80;67.00;;;;;;10424317;28;20064;-56
2023/03/14 11:13:21;;;;;;;4.00;1.10;;;15.70;66.70;;;;;;10444692;28;20032;-56
2023/03/14 11:19:04;;;;;;;5.10;1.40;;;15.80;66.80;;;;;;10453258;28;20033;-55
2023/03/14 11:24:29;;;;;;;5.57;1.10;;;15.80;66.90;;;;;;10436501;28;20460;-56
2023/03/14 11:30:04;;;;;;;4.80;0.93;;;15.80;67.90;;;;;;10437590;28;20056;-56
2023/03/14 11:35:38;;;;;;;3.13;0.93;;;15.90;68.10;;;;;;10429713;28;20017;-56
2023/03/14 11:40:40;;;;;;;3.67;0.75;;;15.90;67.90;;;;;;10443260;28;20029;-57
2023/03/14 11:45:43;;;;;;;3.83;0.93;;;15.90;67.70;;;;;;10443959;28;20502;-56
2023/03/14 11:50:47;;;;;;;2.88;1.38;;;15.90;67.20;;;;;;10414380;28;20029;-56
2023/03/14 11:55:49;;;;;;;1.92;0.70;;;15.90;67.30;;;;;;10444258;28;20071;-55
2023/03/14 12:00:53;;;;;;;2.13;0.70;;;16.00;67.20;;;;;;10443953;28;20028;-56
2023/03/14 12:06:20;;;;;;;2.85;0.60;;;16.00;67.10;;;;;;10443496;28;20005;-56
2023/03/14 12:11:38;;;;;;;3.35;0.65;;;16.10;67.10;;;;;;10437450;28;20060;-57
2023/03/14 12:16:39;;;;;;;2.80;0.70;;;16.10;67.10;;;;;;10433545;28;20025;-58
2023/03/14 12:21:50;;;;;;;2.45;0.60;;;16.10;67.20;;;;;;10444375;28;20032;-57
2023/03/14 12:26:58;;;;;;;9.40;1.33;;;16.10;66.80;;;;;;10444409;28;20029;-57
2023/03/14 12:32:23;;;;;;;3.03;0.70;;;16.20;66.90;;;;;;10427289;28;20018;-57
2023/03/14 12:37:33;;;;;;;2.67;0.55;;;16.30;66.60;;;;;;10454199;28;20029;-58
2023/03/14 12:43:03;;;;;;;3.97;0.90;;;16.40;66.20;;;;;;10432015;28;20623;-57
2023/03/14 12:48:19;;;;;;;5.50;0.88;;;16.60;65.90;;;;;;10450612;28;20029;-58
2023/03/14 12:53:57;;;;;;;6.40;1.33;;;16.60;65.80;;;;;;10450679;28;20043;-57
2023/03/14 12:59:29;;;;;;;2.28;0.90;;;16.70;65.50;;;;;;10448683;28;20033;-58
2023/03/14 13:05:01;;;;;;;4.22;1.27;;;16.80;65.40;;;;;;10444678;28;20392;-58
2023/03/14 13:10:07;;;;;;;2.33;0.82;;;16.80;65.40;;;;;;10445386;28;20059;-58
2023/03/14 13:15:47;;;;;;;5.03;0.88;;;16.80;65.30;;;;;;10446573;28;20597;-58
2023/03/14 13:21:19;;;;;;;4.77;1.63;;;16.80;65.30;;;;;;10436766;28;20136;-53
2023/03/14 13:26:35;;;;;;;5.13;1.23;;;16.80;65.30;;;;;;10446847;28;20315;-58
2023/03/14 13:31:36;;;;;;;3.60;1.05;;;16.80;65.50;;;;;;10421266;28;20017;-58
2023/03/14 13:36:36;;;;;;;4.88;1.50;;;16.70;65.60;;;;;;10443666;28;20432;-58
2023/03/14 13:41:37;;;;;;;3.03;0.90;;;16.80;65.50;;;;;;10443359;28;20396;-57
2023/03/14 13:46:38;;;;;;;2.40;0.60;;;16.70;65.40;;;;;;10443496;28;20361;-58
2023/03/14 13:51:40;;;;;;;7.82;1.40;;;16.70;65.40;;;;;;10444571;28;20025;-57
2023/03/14 13:56:40;;;;;;;8.18;2.03;;;16.70;65.20;;;;;;10438480;28;20028;-59
2023/03/14 14:01:41;;;;;;;11.07;1.45;;;16.70;65.10;;;;;;10447603;28;20036;-59
2023/03/14 14:06:50;;;;;;;11.00;1.42;;;16.60;65.30;;;;;;10447181;28;20511;-58
2023/03/14 14:12:15;;;;;;;4.18;1.00;;;16.70;65.20;;;;;;10447824;28;20056;-59
2023/03/14 14:17:48;;;;;;;4.00;1.00;;;16.70;65.10;;;;;;10447227;28;20083;-58
2023/03/14 14:22:51;;;;;;;7.90;1.33;;;16.70;65.10;;;;;;10431600;28;20124;-58
2023/03/14 14:27:51;;;;;;;7.75;1.40;;;16.70;65.20;;;;;;10447642;28;20468;-58
2023/03/14 14:32:52;;;;;;;3.50;1.25;;;16.70;65.20;;;;;;10442077;28;20078;-58
2023/03/14 14:37:53;;;;;;;7.60;1.35;;;16.60;64.90;;;;;;10448285;28;20029;-57
2023/03/14 14:43:01;;;;;;;6.63;1.13;;;16.60;64.70;;;;;;10446291;28;20025;-59
2023/03/14 14:48:04;;;;;;;4.32;0.82;;;16.50;64.40;;;;;;10445944;28;20397;-59
2023/03/14 14:53:27;;;;;;;5.15;1.13;;;16.50;64.80;;;;;;10447814;28;20029;-58
2023/03/14 14:58:40;;;;;;;7.95;1.48;;;16.40;64.80;;;;;;10445027;28;20075;-56
2023/03/14 15:03:46;;;;;;;9.60;1.52;;;16.40;63.90;;;;;;10441557;28;20108;-57
2023/03/14 15:08:48;;;;;;;6.85;1.38;;;16.40;63.60;;;;;;10458059;28;20053;-58
2023/03/14 15:13:50;;;;;;;4.47;1.50;;;16.40;63.70;;;;;;10443939;28;20021;-58
2023/03/14 15:18:57;;;;;;;7.82;1.85;;;16.50;63.70;;;;;;10443848;28;20025;-59
2023/03/14 15:23:58;;;;;;;6.70;1.38;;;16.50;63.90;;;;;;10440484;28;20028;-58
2023/03/14 15:28:59;;;;;;;4.93;1.27;;;16.60;63.80;;;;;;10444642;28;20048;-60
2023/03/14 15:33:59;;;;;;;5.95;1.40;;;16.60;63.90;;;;;;10446144;28;20096;-59
2023/03/14 15:39:00;;;;;;;10.77;1.35;;;16.60;63.80;;;;;;10444768;28;20061;-58
2023/03/14 15:44:01;;;;;;;6.38;2.13;;;16.60;63.50;;;;;;10442850;28;20023;-58
2023/03/14 15:49:02;;;;;;;6.88;2.38;;;16.60;63.40;;;;;;10437043;28;20027;-58
2023/03/14 15:54:02;;;;;;;3.78;1.63;;;16.60;63.10;;;;;;10445733;28;20037;-58
2023/03/14 15:59:03;;;;;;;6.38;1.10;;;16.70;63.30;;;;;;10444510;28;20728;-58
2023/03/14 16:04:04;;;;;;;12.13;1.95;;;16.70;62.90;;;;;;10439688;28;20029;-59
2023/03/14 16:09:04;;;;;;;10.80;2.17;;;16.70;63.20;;;;;;10434490;28;20045;-58
2023/03/14 16:14:05;;;;;;;12.35;2.08;;;16.60;63.70;;;;;;10424023;28;20111;-58
2023/03/14 16:19:07;;;;;;;4.88;1.50;;;16.80;62.80;;;;;;10428990;28;20025;-60
2023/03/14 16:24:07;;;;;;;10.75;1.75;;;16.70;63.70;;;;;;10437632;28;20026;-57
2023/03/14 16:29:08;;;;;;;5.57;1.30;;;16.70;63.50;;;;;;10438327;28;20025;-58
2023/03/14 16:34:09;;;;;;;5.00;1.60;;;16.70;63.40;;;;;;10432623;28;20543;-58
2023/03/14 16:39:10;;;;;;;8.93;1.42;;;16.70;63.60;;;;;;10421064;28;20112;-57
2023/03/14 16:44:11;;;;;;;13.23;4.13;;;16.70;63.50;;;;;;10438216;28;20603;-57
2023/03/14 16:49:11;;;;;;;11.35;3.05;;;16.90;69.10;;;;;;10430309;28;20466;-56
2023/03/14 16:54:12;;;;;;;10.48;2.30;;;17.30;65.40;;;;;;10449984;28;20102;-59
2023/03/14 16:59:13;;;;;;;12.05;2.28;;;17.70;65.20;;;;;;10451455;28;20094;-57
2023/03/14 17:04:13;;;;;;;10.77;2.28;;;17.70;64.70;;;;;;10450336;28;20056;-57
2023/03/14 17:09:14;;;;;;;13.15;2.63;;;17.60;65.10;;;;;;10450950;28;20080;-57
2023/03/14 17:14:15;;;;;;;22.75;2.83;;;17.50;65.20;;;;;;10449597;28;20029;-57
2023/03/14 17:19:15;;;;;;;11.50;2.30;;;17.40;65.70;;;;;;10451109;28;20470;-55
2023/03/14 17:24:17;;;;;;;10.77;1.80;;;17.40;65.70;;;;;;10450601;28;20171;-58
2023/03/14 17:29:18;;;;;;;8.20;2.25;;;17.20;65.40;;;;;;10448739;28;20061;-58
2023/03/14 17:34:19;;;;;;;14.00;2.08;;;17.20;65.20;;;;;;10450268;28;20607;-58
2023/03/14 17:39:19;;;;;;;15.95;2.88;;;17.10;65.10;;;;;;10448439;28;20040;-57
2023/03/14 17:44:21;;;;;;;27.90;3.20;;;17.00;65.30;;;;;;10438468;28;20128;-57
2023/03/14 17:49:22;;;;;;;28.73;4.88;;;16.80;65.90;;;;;;10448155;28;20025;-57
2023/03/14 17:54:22;;;;;;;22.45;4.47;;;16.80;66.00;;;;;;10448305;28;20095;-57
2023/03/14 17:59:23;;;;;;;21.60;2.75;;;16.80;66.50;;;;;;10448143;28;20643;-57
2023/03/14 18:04:23;;;;;;;22.60;4.05;;;16.80;66.70;;;;;;10448237;28;20063;-57
2023/03/14 18:09:25;;;;;;;15.00;2.90;;;16.80;66.80;;;;;;10448458;28;20053;-57
2023/03/14 18:14:25;;;;;;;13.23;3.08;;;16.80;65.40;;;;;;10442290;28;20071;-55
2023/03/14 18:19:26;;;;;;;15.85;3.15;;;16.90;64.80;;;;;;10444022;28;20511;-58
2023/03/14 18:24:27;;;;;;;14.35;2.55;;;17.00;64.20;;;;;;10447497;28;20062;-57
2023/03/14 18:29:27;;;;;;;16.92;2.17;;;17.10;63.70;;;;;;10430993;28;20013;-57
2023/03/14 18:34:28;;;;;;;13.00;1.92;;;17.10;63.40;;;;;;10448191;28;20055;-57
2023/03/14 18:39:29;;;;;;;14.98;1.73;;;17.10;63.10;;;;;;10430385;28;20120;-57
2023/03/14 18:44:30;;;;;;;12.68;2.22;;;17.10;62.80;;;;;;10440755;28;20024;-58
2023/03/14 18:49:32;;;;;;;9.40;1.70;;;17.10;62.70;;;;;;10446125;28;20025;-57
2023/03/14 18:54:33;;;;;;;6.47;1.35;;;16.90;63.60;;;;;;10446612;28;20119;-57
2023/03/14 18:59:34;;;;;;;8.65;2.08;;;16.80;63.30;;;;;;10445688;28;20045;-57
2023/03/14 19:04:34;;;;;;;8.95;1.85;;;16.80;63.90;;;;;;10445007;28;20111;-57
2023/03/14 19:09:35;;;;;;;8.32;1.73;;;16.90;62.90;;;;;;10424349;28;20537;-57
2023/03/14 19:14:36;;;;;;;8.57;1.42;;;17.00;62.60;;;;;;10425291;28;20140;-57
2023/03/14 19:19:36;;;;;;;3.17;1.30;;;17.10;62.30;;;;;;10429286;28;20064;-57
2023/03/14 19:24:37;;;;;;;9.07;1.40;;;17.10;62.10;;;;;;10435528;28;20513;-56
2023/03/14 19:29:41;;;;;;;6.45;3.00;;;17.00;62.00;;;;;;10444610;28;20033;-57
2023/03/14 19:34:42;;;;;;;4.70;1.30;;;17.10;61.80;;;;;;10444866;28;20017;-57
2023/03/14 19:39:45;;;;;;;6.35;2.00;;;17.10;61.80;;;;;;10441808;28;20033;-56
2023/03/14 19:44:46;;;;;;;9.60;1.27;;;17.10;61.60;;;;;;10447779;28;20041;-57
2023/03/14 19:49:47;;;;;;;4.25;1.33;;;17.10;61.40;;;;;;10434439;28;20021;-57
2023/03/14 19:54:47;;;;;;;3.78;0.98;;;17.10;61.10;;;;;;10446979;28;20055;-57
2023/03/14 19:59:48;;;;;;;4.28;1.30;;;17.10;61.00;;;;;;10433576;28;20113;-56
2023/03/14 20:04:53;;;;;;;6.35;1.25;;;17.10;61.00;;;;;;10435558;28;20110;-56
2023/03/14 20:09:53;;;;;;;5.45;1.20;;;17.10;61.10;;;;;;10438650;28;20046;-56
2023/03/14 20:14:54;;;;;;;3.15;0.95;;;17.10;60.90;;;;;;10423964;28;20455;-56
2023/03/14 20:19:55;;;;;;;4.40;1.55;;;17.20;60.80;;;;;;10439780;28;20568;-56
2023/03/14 20:24:55;;;;;;;6.85;1.77;;;17.10;60.80;;;;;;10430222;28;20052;-56
2023/03/14 20:29:57;;;;;;;3.63;2.05;;;17.20;60.70;;;;;;10430279;28;20150;-56
2023/03/14 20:34:58;;;;;;;4.95;1.50;;;17.20;60.80;;;;;;10443641;28;20086;-57
2023/03/14 20:39:59;;;;;;;5.60;1.27;;;17.00;61.30;;;;;;10444668;28;20104;-56
2023/03/14 20:45:00;;;;;;;4.57;1.02;;;17.00;61.30;;;;;;10436855;28;20018;-56
2023/03/14 20:50:01;;;;;;;3.60;1.35;;;16.90;61.30;;;;;;10459006;28;20751;-57
2023/03/14 20:55:03;;;;;;;4.35;1.48;;;16.80;61.50;;;;;;10447888;28;20128;-56
2023/03/14 21:00:06;;;;;;;3.35;1.20;;;16.80;61.70;;;;;;10447500;28;20322;-56
2023/03/14 21:05:08;;;;;;;4.45;1.45;;;16.70;61.90;;;;;;10445280;28;20033;-56
2023/03/14 21:10:11;;;;;;;4.82;1.40;;;16.60;62.20;;;;;;10447894;28;20055;-57
2023/03/14 21:15:13;;;;;;;3.92;1.42;;;16.50;62.30;;;;;;10446349;28;20037;-56
2023/03/14 21:20:15;;;;;;;4.53;1.23;;;16.40;62.50;;;;;;10448781;28;20380;-54
2023/03/14 21:25:16;;;;;;;3.83;1.40;;;16.30;62.70;;;;;;10445544;28;20032;-57
2023/03/14 21:30:17;;;;;;;3.67;1.48;;;16.30;63.00;;;;;;10447529;28;20020;-56
2023/03/14 21:35:17;;;;;;;6.70;2.05;;;16.20;63.00;;;;;;10445749;28;20051;-57
2023/03/14 21:40:19;;;;;;;5.18;1.00;;;16.20;63.20;;;;;;10444884;28;20067;-56
2023/03/14 21:45:24;;;;;;;2.97;0.98;;;16.20;63.40;;;;;;10428421;28;20052;-57
2023/03/14 21:50:25;;;;;;;4.63;1.52;;;16.10;63.60;;;;;;10444688;28;20021;-56
2023/03/14 21:55:26;;;;;;;2.78;1.00;;;16.00;63.10;;;;;;10444244;28;20166;-56
2023/03/14 22:00:27;;;;;;;2.92;1.35;;;16.00;63.20;;;;;;10445664;28;20487;-57
2023/03/14 22:05:28;;;;;;;2.47;1.48;;;15.90;63.20;;;;;;10444288;28;20032;-57
2023/03/14 22:10:28;;;;;;;3.35;1.20;;;15.90;63.10;;;;;;10444333;28;20144;-55
2023/03/14 22:15:29;;;;;;;2.95;0.80;;;15.90;63.20;;;;;;10451528;28;20472;-56
2023/03/14 22:20:30;;;;;;;3.10;1.40;;;15.80;63.70;;;;;;10444480;28;20116;-55
2023/03/14 22:25:31;;;;;;;2.40;0.93;;;15.80;64.00;;;;;;10444052;28;20380;-56
2023/03/14 22:30:31;;;;;;;4.68;1.02;;;15.80;64.20;;;;;;10444809;28;20029;-56
2023/03/14 22:35:32;;;;;;;3.00;1.15;;;15.70;64.20;;;;;;10444236;28;20031;-56
2023/03/14 22:40:35;;;;;;;3.67;0.90;;;15.70;64.30;;;;;;10443032;28;20476;-57
2023/03/14 22:45:36;;;;;;;1.75;0.88;;;15.70;64.40;;;;;;10413064;28;20064;-56
2023/03/14 22:50:38;;;;;;;2.78;0.88;;;15.70;64.30;;;;;;10442217;28;20020;-56
2023/03/14 22:55:39;;;;;;;2.78;0.75;;;15.70;64.30;;;;;;10442327;28;20029;-56
2023/03/14 23:00:40;;;;;;;2.97;1.02;;;15.60;64.50;;;;;;10441385;28;20029;-56
2023/03/14 23:05:40;;;;;;;1.58;0.77;;;15.60;64.30;;;;;;10443197;28;20111;-57
2023/03/14 23:10:42;;;;;;;2.33;1.20;;;15.60;64.30;;;;;;10441729;28;20116;-56
2023/03/14 23:15:43;;;;;;;2.50;0.77;;;15.60;64.20;;;;;;10424652;28;20476;-56
2023/03/14 23:20:44;;;;;;;2.88;0.68;;;15.60;63.90;;;;;;10442484;28;20029;-55
2023/03/14 23:25:44;;;;;;;2.20;0.98;;;15.60;63.80;;;;;;10441734;28;20131;-56
2023/03/14 23:30:45;;;;;;;1.50;0.88;;;15.50;63.60;;;;;;10442004;28;20100;-56
2023/03/14 23:35:46;;;;;;;3.28;1.02;;;15.50;63.60;;;;;;10441296;28;20051;-56
2023/03/14 23:40:46;;;;;;;3.63;1.05;;;15.50;63.80;;;;;;10442514;28;20029;-55
2023/03/14 23:45:52;;;;;;;1.63;0.80;;;15.50;63.90;;;;;;10416256;28;20029;-55
2023/03/14 23:50:55;;;;;;;2.22;0.70;;;15.50;63.90;;;;;;10441470;28;20030;-56
2023/03/14 23:55:57;;;;;;;1.88;0.85;;;15.40;64.00;;;;;;10424416;28;20017;-56
